sensor_id;sensor_type;location;lat;lon;timestamp;P1;durP1;ratioP1;P2;durP2;ratioP2
37655;SDS011;23498;50.958;3.124;2023-07-13T00:00:21;10.38;;;3.47;;
37655;SDS011;23498;50.958;3.124;2023-07-13T00:02:47;10.48;;;3.30;;
37655;SDS011;23498;50.958;3.124;2023-07-13T00:05:13;10.48;;;3.30;;
37655;SDS011;23498;50.958;3.124;2023-07-13T00:07:39;12.00;;;3.03;;
37655;SDS011;23498;50.958;3.124;2023-07-13T00:10:05;12.50;;;3.10;;
37655;SDS011;23498;50.958;3.124;2023-07-13T00:12:33;10.48;;;2.97;;
37655;SDS011;23498;50.958;3.124;2023-07-13T00:14:59;11.00;;;3.20;;
37655;SDS011;23498;50.958;3.124;2023-07-13T00:17:26;12.75;;;3.30;;
37655;SDS011;23498;50.958;3.124;2023-07-13T00:19:52;11.88;;;4.25;;
37655;SDS011;23498;50.958;3.124;2023-07-13T00:22:18;9.18;;;2.80;;
37655;SDS011;23498;50.958;3.124;2023-07-13T00:24:45;12.57;;;3.80;;
37655;SDS011;23498;50.958;3.124;2023-07-13T00:27:11;12.32;;;3.53;;
37655;SDS011;23498;50.958;3.124;2023-07-13T00:29:38;10.02;;;3.55;;
37655;SDS011;23498;50.958;3.124;2023-07-13T00:32:04;10.90;;;3.40;;
37655;SDS011;23498;50.958;3.124;2023-07-13T00:34:31;9.13;;;3.15;;
37655;SDS011;23498;50.958;3.124;2023-07-13T00:36:57;13.30;;;3.03;;
37655;SDS011;23498;50.958;3.124;2023-07-13T00:39:23;9.80;;;3.88;;
37655;SDS011;23498;50.958;3.124;2023-07-13T00:41:49;11.10;;;3.60;;
37655;SDS011;23498;50.958;3.124;2023-07-13T00:44:16;10.20;;;3.85;;
37655;SDS011;23498;50.958;3.124;2023-07-13T00:46:42;14.13;;;3.85;;
37655;SDS011;23498;50.958;3.124;2023-07-13T00:49:09;8.32;;;3.35;;
37655;SDS011;23498;50.958;3.124;2023-07-13T00:51:46;12.77;;;3.88;;
37655;SDS011;23498;50.958;3.124;2023-07-13T00:54:15;17.70;;;3.55;;
37655;SDS011;23498;50.958;3.124;2023-07-13T00:56:43;10.40;;;3.30;;
37655;SDS011;23498;50.958;3.124;2023-07-13T00:59:11;12.57;;;3.10;;
37655;SDS011;23498;50.958;3.124;2023-07-13T01:01:37;14.38;;;3.53;;
37655;SDS011;23498;50.958;3.124;2023-07-13T01:04:04;11.60;;;3.60;;
37655;SDS011;23498;50.958;3.124;2023-07-13T01:06:33;14.63;;;3.67;;
37655;SDS011;23498;50.958;3.124;2023-07-13T01:09:00;10.90;;;4.05;;
37655;SDS011;23498;50.958;3.124;2023-07-13T01:11:26;11.77;;;3.47;;
37655;SDS011;23498;50.958;3.124;2023-07-13T01:13:52;12.15;;;4.22;;
37655;SDS011;23498;50.958;3.124;2023-07-13T01:16:27;11.63;;;3.35;;
37655;SDS011;23498;50.958;3.124;2023-07-13T01:18:54;12.10;;;3.72;;
37655;SDS011;23498;50.958;3.124;2023-07-13T01:21:24;12.25;;;3.58;;
37655;SDS011;23498;50.958;3.124;2023-07-13T01:23:50;12.13;;;3.72;;
37655;SDS011;23498;50.958;3.124;2023-07-13T01:26:16;14.25;;;4.20;;
37655;SDS011;23498;50.958;3.124;2023-07-13T01:28:42;9.45;;;4.00;;
37655;SDS011;23498;50.958;3.124;2023-07-13T01:31:08;12.82;;;4.18;;
37655;SDS011;23498;50.958;3.124;2023-07-13T01:33:35;11.93;;;4.05;;
37655;SDS011;23498;50.958;3.124;2023-07-13T01:36:01;13.65;;;3.92;;
37655;SDS011;23498;50.958;3.124;2023-07-13T01:38:27;11.07;;;3.92;;
37655;SDS011;23498;50.958;3.124;2023-07-13T01:40:53;8.10;;;3.75;;
37655;SDS011;23498;50.958;3.124;2023-07-13T01:43:20;10.65;;;4.07;;
37655;SDS011;23498;50.958;3.124;2023-07-13T01:45:46;8.85;;;4.15;;
37655;SDS011;23498;50.958;3.124;2023-07-13T01:48:12;13.65;;;4.38;;
37655;SDS011;23498;50.958;3.124;2023-07-13T01:50:39;11.32;;;4.13;;
37655;SDS011;23498;50.958;3.124;2023-07-13T01:53:05;14.90;;;4.38;;
37655;SDS011;23498;50.958;3.124;2023-07-13T01:55:31;10.27;;;4.22;;
37655;SDS011;23498;50.958;3.124;2023-07-13T01:57:57;13.63;;;3.95;;
37655;SDS011;23498;50.958;3.124;2023-07-13T02:00:24;12.63;;;4.30;;
37655;SDS011;23498;50.958;3.124;2023-07-13T02:02:50;10.52;;;3.90;;
37655;SDS011;23498;50.958;3.124;2023-07-13T02:05:16;11.35;;;4.57;;
37655;SDS011;23498;50.958;3.124;2023-07-13T02:07:42;12.35;;;4.00;;
37655;SDS011;23498;50.958;3.124;2023-07-13T02:10:09;12.23;;;4.72;;
37655;SDS011;23498;50.958;3.124;2023-07-13T02:12:35;10.48;;;4.53;;
37655;SDS011;23498;50.958;3.124;2023-07-13T02:15:02;12.65;;;4.53;;
37655;SDS011;23498;50.958;3.124;2023-07-13T02:17:28;14.68;;;5.00;;
37655;SDS011;23498;50.958;3.124;2023-07-13T02:19:54;10.77;;;4.60;;
37655;SDS011;23498;50.958;3.124;2023-07-13T02:22:20;11.45;;;4.88;;
37655;SDS011;23498;50.958;3.124;2023-07-13T02:24:46;15.90;;;4.60;;
37655;SDS011;23498;50.958;3.124;2023-07-13T02:27:12;12.70;;;4.32;;
37655;SDS011;23498;50.958;3.124;2023-07-13T02:29:38;12.95;;;4.88;;
37655;SDS011;23498;50.958;3.124;2023-07-13T02:32:04;9.63;;;3.65;;
37655;SDS011;23498;50.958;3.124;2023-07-13T02:34:30;14.40;;;4.75;;
37655;SDS011;23498;50.958;3.124;2023-07-13T02:36:56;12.60;;;4.40;;
37655;SDS011;23498;50.958;3.124;2023-07-13T02:39:22;11.52;;;4.47;;
37655;SDS011;23498;50.958;3.124;2023-07-13T02:41:48;13.68;;;4.28;;
37655;SDS011;23498;50.958;3.124;2023-07-13T02:44:14;13.05;;;4.20;;
37655;SDS011;23498;50.958;3.124;2023-07-13T02:46:41;10.45;;;4.57;;
37655;SDS011;23498;50.958;3.124;2023-07-13T02:49:06;10.75;;;4.60;;
37655;SDS011;23498;50.958;3.124;2023-07-13T02:51:32;15.30;;;4.53;;
37655;SDS011;23498;50.958;3.124;2023-07-13T02:53:59;12.05;;;4.22;;
37655;SDS011;23498;50.958;3.124;2023-07-13T02:56:26;10.05;;;3.78;;
37655;SDS011;23498;50.958;3.124;2023-07-13T02:58:53;11.10;;;3.97;;
37655;SDS011;23498;50.958;3.124;2023-07-13T03:01:20;11.63;;;4.20;;
37655;SDS011;23498;50.958;3.124;2023-07-13T03:03:47;16.33;;;4.45;;
37655;SDS011;23498;50.958;3.124;2023-07-13T03:06:13;12.13;;;4.22;;
37655;SDS011;23498;50.958;3.124;2023-07-13T03:08:40;12.00;;;4.15;;
37655;SDS011;23498;50.958;3.124;2023-07-13T03:11:07;14.98;;;4.60;;
37655;SDS011;23498;50.958;3.124;2023-07-13T03:13:35;11.95;;;4.35;;
37655;SDS011;23498;50.958;3.124;2023-07-13T03:16:01;10.13;;;4.13;;
37655;SDS011;23498;50.958;3.124;2023-07-13T03:18:28;12.15;;;4.32;;
37655;SDS011;23498;50.958;3.124;2023-07-13T03:20:54;12.63;;;4.13;;
37655;SDS011;23498;50.958;3.124;2023-07-13T03:23:21;14.93;;;4.50;;
37655;SDS011;23498;50.958;3.124;2023-07-13T03:25:47;10.82;;;3.80;;
37655;SDS011;23498;50.958;3.124;2023-07-13T03:28:13;14.02;;;4.28;;
37655;SDS011;23498;50.958;3.124;2023-07-13T03:30:39;13.68;;;4.43;;
37655;SDS011;23498;50.958;3.124;2023-07-13T03:33:06;14.60;;;4.30;;
37655;SDS011;23498;50.958;3.124;2023-07-13T03:35:32;11.48;;;4.30;;
37655;SDS011;23498;50.958;3.124;2023-07-13T03:37:58;12.13;;;4.10;;
37655;SDS011;23498;50.958;3.124;2023-07-13T03:40:25;14.07;;;4.75;;
37655;SDS011;23498;50.958;3.124;2023-07-13T03:42:51;13.63;;;3.95;;
37655;SDS011;23498;50.958;3.124;2023-07-13T03:45:17;11.45;;;3.97;;
37655;SDS011;23498;50.958;3.124;2023-07-13T03:47:43;13.77;;;4.50;;
37655;SDS011;23498;50.958;3.124;2023-07-13T03:50:10;10.63;;;4.00;;
37655;SDS011;23498;50.958;3.124;2023-07-13T03:52:36;15.65;;;4.47;;
37655;SDS011;23498;50.958;3.124;2023-07-13T03:55:02;12.30;;;4.20;;
37655;SDS011;23498;50.958;3.124;2023-07-13T03:57:28;11.50;;;4.88;;
37655;SDS011;23498;50.958;3.124;2023-07-13T03:59:54;11.02;;;3.83;;
37655;SDS011;23498;50.958;3.124;2023-07-13T04:02:20;13.93;;;4.50;;
37655;SDS011;23498;50.958;3.124;2023-07-13T04:04:46;12.43;;;3.92;;
37655;SDS011;23498;50.958;3.124;2023-07-13T04:07:12;9.93;;;4.50;;
37655;SDS011;23498;50.958;3.124;2023-07-13T04:09:38;15.65;;;4.32;;
37655;SDS011;23498;50.958;3.124;2023-07-13T04:12:04;13.15;;;4.30;;
37655;SDS011;23498;50.958;3.124;2023-07-13T04:14:30;13.00;;;4.63;;
37655;SDS011;23498;50.958;3.124;2023-07-13T04:16:56;12.35;;;4.72;;
37655;SDS011;23498;50.958;3.124;2023-07-13T04:19:23;11.88;;;4.40;;
37655;SDS011;23498;50.958;3.124;2023-07-13T04:21:49;11.85;;;4.55;;
37655;SDS011;23498;50.958;3.124;2023-07-13T04:24:15;11.55;;;4.20;;
37655;SDS011;23498;50.958;3.124;2023-07-13T04:26:41;10.40;;;4.22;;
37655;SDS011;23498;50.958;3.124;2023-07-13T04:29:07;12.30;;;4.25;;
37655;SDS011;23498;50.958;3.124;2023-07-13T04:31:33;11.18;;;4.57;;
37655;SDS011;23498;50.958;3.124;2023-07-13T04:33:59;14.48;;;4.38;;
37655;SDS011;23498;50.958;3.124;2023-07-13T04:36:25;11.88;;;4.75;;
37655;SDS011;23498;50.958;3.124;2023-07-13T04:38:52;11.00;;;3.95;;
37655;SDS011;23498;50.958;3.124;2023-07-13T04:41:19;9.50;;;4.40;;
37655;SDS011;23498;50.958;3.124;2023-07-13T04:43:45;12.52;;;4.18;;
37655;SDS011;23498;50.958;3.124;2023-07-13T04:46:11;11.05;;;4.78;;
37655;SDS011;23498;50.958;3.124;2023-07-13T04:48:37;12.07;;;4.22;;
37655;SDS011;23498;50.958;3.124;2023-07-13T04:51:04;16.92;;;4.85;;
37655;SDS011;23498;50.958;3.124;2023-07-13T04:53:30;12.98;;;4.30;;
37655;SDS011;23498;50.958;3.124;2023-07-13T04:55:57;13.38;;;4.25;;
37655;SDS011;23498;50.958;3.124;2023-07-13T04:58:24;12.75;;;4.05;;
37655;SDS011;23498;50.958;3.124;2023-07-13T05:00:50;10.77;;;4.05;;
37655;SDS011;23498;50.958;3.124;2023-07-13T05:03:16;14.07;;;3.92;;
37655;SDS011;23498;50.958;3.124;2023-07-13T05:05:43;11.63;;;3.70;;
37655;SDS011;23498;50.958;3.124;2023-07-13T05:08:09;7.57;;;3.42;;
37655;SDS011;23498;50.958;3.124;2023-07-13T05:10:35;12.48;;;4.78;;
37655;SDS011;23498;50.958;3.124;2023-07-13T05:13:01;12.98;;;4.43;;
37655;SDS011;23498;50.958;3.124;2023-07-13T05:15:28;13.65;;;4.85;;
37655;SDS011;23498;50.958;3.124;2023-07-13T05:17:54;11.85;;;4.05;;
37655;SDS011;23498;50.958;3.124;2023-07-13T05:20:20;15.32;;;4.38;;
37655;SDS011;23498;50.958;3.124;2023-07-13T05:22:45;9.15;;;4.03;;
37655;SDS011;23498;50.958;3.124;2023-07-13T05:25:12;12.57;;;4.03;;
37655;SDS011;23498;50.958;3.124;2023-07-13T05:27:38;13.05;;;4.38;;
37655;SDS011;23498;50.958;3.124;2023-07-13T05:30:05;15.85;;;4.85;;
37655;SDS011;23498;50.958;3.124;2023-07-13T05:32:33;11.50;;;4.25;;
37655;SDS011;23498;50.958;3.124;2023-07-13T05:34:59;12.95;;;4.30;;
37655;SDS011;23498;50.958;3.124;2023-07-13T05:37:25;16.35;;;4.32;;
37655;SDS011;23498;50.958;3.124;2023-07-13T05:39:51;17.05;;;4.35;;
37655;SDS011;23498;50.958;3.124;2023-07-13T05:42:17;14.57;;;4.20;;
37655;SDS011;23498;50.958;3.124;2023-07-13T05:44:43;13.85;;;4.40;;
37655;SDS011;23498;50.958;3.124;2023-07-13T05:47:09;14.65;;;4.53;;
37655;SDS011;23498;50.958;3.124;2023-07-13T05:49:35;12.77;;;4.28;;
37655;SDS011;23498;50.958;3.124;2023-07-13T05:52:01;14.80;;;4.63;;
37655;SDS011;23498;50.958;3.124;2023-07-13T05:54:27;14.07;;;4.65;;
37655;SDS011;23498;50.958;3.124;2023-07-13T05:56:53;12.88;;;4.50;;
37655;SDS011;23498;50.958;3.124;2023-07-13T05:59:19;11.55;;;4.57;;
37655;SDS011;23498;50.958;3.124;2023-07-13T06:01:45;11.43;;;4.30;;
37655;SDS011;23498;50.958;3.124;2023-07-13T06:04:11;11.15;;;4.43;;
37655;SDS011;23498;50.958;3.124;2023-07-13T06:06:37;12.38;;;4.40;;
37655;SDS011;23498;50.958;3.124;2023-07-13T06:09:03;12.32;;;4.38;;
37655;SDS011;23498;50.958;3.124;2023-07-13T06:11:29;14.70;;;4.55;;
37655;SDS011;23498;50.958;3.124;2023-07-13T06:13:55;12.30;;;3.90;;
37655;SDS011;23498;50.958;3.124;2023-07-13T06:16:21;8.75;;;3.70;;
37655;SDS011;23498;50.958;3.124;2023-07-13T06:18:48;11.70;;;4.05;;
37655;SDS011;23498;50.958;3.124;2023-07-13T06:21:18;12.73;;;4.28;;
37655;SDS011;23498;50.958;3.124;2023-07-13T06:23:45;13.68;;;4.47;;
37655;SDS011;23498;50.958;3.124;2023-07-13T06:26:13;12.32;;;4.53;;
37655;SDS011;23498;50.958;3.124;2023-07-13T06:28:39;11.20;;;3.80;;
37655;SDS011;23498;50.958;3.124;2023-07-13T06:31:08;13.68;;;3.92;;
37655;SDS011;23498;50.958;3.124;2023-07-13T06:33:35;14.38;;;4.55;;
37655;SDS011;23498;50.958;3.124;2023-07-13T06:36:02;12.55;;;4.13;;
37655;SDS011;23498;50.958;3.124;2023-07-13T06:38:29;13.82;;;3.70;;
37655;SDS011;23498;50.958;3.124;2023-07-13T06:40:55;12.20;;;3.83;;
37655;SDS011;23498;50.958;3.124;2023-07-13T06:43:20;12.02;;;4.00;;
37655;SDS011;23498;50.958;3.124;2023-07-13T06:45:48;10.90;;;3.70;;
37655;SDS011;23498;50.958;3.124;2023-07-13T06:48:16;13.23;;;3.58;;
37655;SDS011;23498;50.958;3.124;2023-07-13T06:50:42;12.55;;;3.45;;
37655;SDS011;23498;50.958;3.124;2023-07-13T06:53:09;13.55;;;3.97;;
37655;SDS011;23498;50.958;3.124;2023-07-13T06:55:36;13.48;;;3.78;;
37655;SDS011;23498;50.958;3.124;2023-07-13T06:58:02;7.93;;;3.33;;
37655;SDS011;23498;50.958;3.124;2023-07-13T07:00:28;9.38;;;3.60;;
37655;SDS011;23498;50.958;3.124;2023-07-13T07:02:55;13.13;;;3.60;;
37655;SDS011;23498;50.958;3.124;2023-07-13T07:05:21;14.15;;;4.25;;
37655;SDS011;23498;50.958;3.124;2023-07-13T07:07:47;11.43;;;4.60;;
37655;SDS011;23498;50.958;3.124;2023-07-13T07:10:13;15.90;;;3.60;;
37655;SDS011;23498;50.958;3.124;2023-07-13T07:12:39;9.20;;;3.50;;
37655;SDS011;23498;50.958;3.124;2023-07-13T07:15:05;10.98;;;3.60;;
37655;SDS011;23498;50.958;3.124;2023-07-13T07:17:32;15.15;;;3.97;;
37655;SDS011;23498;50.958;3.124;2023-07-13T07:19:58;10.63;;;3.00;;
37655;SDS011;23498;50.958;3.124;2023-07-13T07:22:23;13.73;;;3.28;;
37655;SDS011;23498;50.958;3.124;2023-07-13T07:24:52;10.18;;;2.97;;
37655;SDS011;23498;50.958;3.124;2023-07-13T07:27:18;10.43;;;3.63;;
37655;SDS011;23498;50.958;3.124;2023-07-13T07:29:44;10.98;;;3.38;;
37655;SDS011;23498;50.958;3.124;2023-07-13T07:32:10;13.73;;;3.53;;
37655;SDS011;23498;50.958;3.124;2023-07-13T07:34:36;12.93;;;3.40;;
37655;SDS011;23498;50.958;3.124;2023-07-13T07:37:02;14.73;;;3.60;;
37655;SDS011;23498;50.958;3.124;2023-07-13T07:39:28;10.00;;;3.40;;
37655;SDS011;23498;50.958;3.124;2023-07-13T07:41:55;10.73;;;2.90;;
37655;SDS011;23498;50.958;3.124;2023-07-13T07:44:21;12.52;;;4.03;;
37655;SDS011;23498;50.958;3.124;2023-07-13T07:46:47;14.27;;;3.58;;
37655;SDS011;23498;50.958;3.124;2023-07-13T07:49:13;9.88;;;2.97;;
37655;SDS011;23498;50.958;3.124;2023-07-13T07:51:39;17.77;;;3.78;;
37655;SDS011;23498;50.958;3.124;2023-07-13T07:54:05;8.85;;;3.10;;
37655;SDS011;23498;50.958;3.124;2023-07-13T07:56:32;9.55;;;3.03;;
37655;SDS011;23498;50.958;3.124;2023-07-13T07:58:58;10.02;;;3.10;;
37655;SDS011;23498;50.958;3.124;2023-07-13T08:01:24;14.10;;;2.90;;
37655;SDS011;23498;50.958;3.124;2023-07-13T08:03:50;6.50;;;2.53;;
37655;SDS011;23498;50.958;3.124;2023-07-13T08:06:16;8.13;;;3.08;;
37655;SDS011;23498;50.958;3.124;2023-07-13T08:08:44;10.95;;;2.72;;
37655;SDS011;23498;50.958;3.124;2023-07-13T08:11:10;11.80;;;3.28;;
37655;SDS011;23498;50.958;3.124;2023-07-13T08:13:36;8.55;;;2.95;;
37655;SDS011;23498;50.958;3.124;2023-07-13T08:16:03;10.52;;;2.88;;
37655;SDS011;23498;50.958;3.124;2023-07-13T08:18:29;11.68;;;3.13;;
37655;SDS011;23498;50.958;3.124;2023-07-13T08:20:55;7.68;;;2.60;;
37655;SDS011;23498;50.958;3.124;2023-07-13T08:23:22;7.65;;;2.35;;
37655;SDS011;23498;50.958;3.124;2023-07-13T08:25:51;10.10;;;2.45;;
37655;SDS011;23498;50.958;3.124;2023-07-13T08:28:17;9.43;;;3.10;;
37655;SDS011;23498;50.958;3.124;2023-07-13T08:30:43;7.95;;;2.50;;
37655;SDS011;23498;50.958;3.124;2023-07-13T08:33:09;9.30;;;3.08;;
37655;SDS011;23498;50.958;3.124;2023-07-13T08:35:35;5.97;;;2.28;;
37655;SDS011;23498;50.958;3.124;2023-07-13T08:38:01;7.97;;;2.55;;
37655;SDS011;23498;50.958;3.124;2023-07-13T08:40:27;10.80;;;2.83;;
37655;SDS011;23498;50.958;3.124;2023-07-13T08:42:54;10.45;;;2.88;;
37655;SDS011;23498;50.958;3.124;2023-07-13T08:50:35;9.43;;;3.28;;
37655;SDS011;23498;50.958;3.124;2023-07-13T08:53:04;6.72;;;2.63;;
37655;SDS011;23498;50.958;3.124;2023-07-13T08:55:33;8.13;;;2.30;;
37655;SDS011;23498;50.958;3.124;2023-07-13T08:58:20;9.23;;;2.70;;
37655;SDS011;23498;50.958;3.124;2023-07-13T09:03:16;6.55;;;2.25;;
37655;SDS011;23498;50.958;3.124;2023-07-13T09:05:45;11.40;;;2.30;;
37655;SDS011;23498;50.958;3.124;2023-07-13T09:10:46;8.52;;;2.42;;
37655;SDS011;23498;50.958;3.124;2023-07-13T09:15:46;10.18;;;2.80;;
37655;SDS011;23498;50.958;3.124;2023-07-13T09:18:30;6.20;;;1.70;;
37655;SDS011;23498;50.958;3.124;2023-07-13T09:21:08;11.30;;;2.05;;
37655;SDS011;23498;50.958;3.124;2023-07-13T09:23:34;6.38;;;1.98;;
37655;SDS011;23498;50.958;3.124;2023-07-13T09:26:05;7.43;;;2.22;;
37655;SDS011;23498;50.958;3.124;2023-07-13T09:28:39;9.07;;;1.98;;
37655;SDS011;23498;50.958;3.124;2023-07-13T09:31:07;4.18;;;1.80;;
37655;SDS011;23498;50.958;3.124;2023-07-13T09:33:37;5.22;;;2.00;;
37655;SDS011;23498;50.958;3.124;2023-07-13T09:36:14;8.07;;;1.70;;
37655;SDS011;23498;50.958;3.124;2023-07-13T09:38:42;8.18;;;1.60;;
37655;SDS011;23498;50.958;3.124;2023-07-13T09:46:34;5.30;;;1.48;;
37655;SDS011;23498;50.958;3.124;2023-07-13T09:49:00;5.57;;;1.70;;
37655;SDS011;23498;50.958;3.124;2023-07-13T09:51:26;5.63;;;1.70;;
37655;SDS011;23498;50.958;3.124;2023-07-13T09:53:52;5.25;;;1.80;;
37655;SDS011;23498;50.958;3.124;2023-07-13T09:56:23;6.55;;;1.90;;
37655;SDS011;23498;50.958;3.124;2023-07-13T09:58:49;9.93;;;3.10;;
37655;SDS011;23498;50.958;3.124;2023-07-13T10:01:15;6.95;;;2.60;;
37655;SDS011;23498;50.958;3.124;2023-07-13T10:03:54;7.25;;;2.88;;
37655;SDS011;23498;50.958;3.124;2023-07-13T10:06:20;8.38;;;3.40;;
37655;SDS011;23498;50.958;3.124;2023-07-13T10:08:47;7.88;;;3.40;;
37655;SDS011;23498;50.958;3.124;2023-07-13T10:11:17;10.65;;;3.80;;
37655;SDS011;23498;50.958;3.124;2023-07-13T10:13:52;8.50;;;4.15;;
37655;SDS011;23498;50.958;3.124;2023-07-13T10:16:21;8.43;;;4.40;;
37655;SDS011;23498;50.958;3.124;2023-07-13T10:21:15;11.48;;;4.38;;
37655;SDS011;23498;50.958;3.124;2023-07-13T10:23:42;11.68;;;4.55;;
37655;SDS011;23498;50.958;3.124;2023-07-13T10:26:11;10.98;;;4.80;;
37655;SDS011;23498;50.958;3.124;2023-07-13T10:28:38;8.20;;;4.55;;
37655;SDS011;23498;50.958;3.124;2023-07-13T10:31:08;9.68;;;4.25;;
37655;SDS011;23498;50.958;3.124;2023-07-13T10:33:37;6.53;;;4.28;;
37655;SDS011;23498;50.958;3.124;2023-07-13T10:36:08;9.52;;;4.63;;
37655;SDS011;23498;50.958;3.124;2023-07-13T10:38:37;7.93;;;4.22;;
37655;SDS011;23498;50.958;3.124;2023-07-13T10:41:05;9.63;;;4.90;;
37655;SDS011;23498;50.958;3.124;2023-07-13T10:43:33;6.93;;;3.92;;
37655;SDS011;23498;50.958;3.124;2023-07-13T10:46:01;7.55;;;3.85;;
37655;SDS011;23498;50.958;3.124;2023-07-13T10:48:28;6.35;;;4.00;;
37655;SDS011;23498;50.958;3.124;2023-07-13T10:50:54;5.70;;;3.40;;
37655;SDS011;23498;50.958;3.124;2023-07-13T10:58:20;7.45;;;3.50;;
37655;SDS011;23498;50.958;3.124;2023-07-13T11:03:28;7.40;;;2.92;;
37655;SDS011;23498;50.958;3.124;2023-07-13T11:06:06;4.72;;;2.60;;
37655;SDS011;23498;50.958;3.124;2023-07-13T11:08:35;5.18;;;2.20;;
37655;SDS011;23498;50.958;3.124;2023-07-13T11:11:32;5.75;;;2.10;;
37655;SDS011;23498;50.958;3.124;2023-07-13T11:21:25;4.10;;;2.03;;
37655;SDS011;23498;50.958;3.124;2023-07-13T11:24:13;4.90;;;1.67;;
37655;SDS011;23498;50.958;3.124;2023-07-13T11:26:40;4.47;;;1.80;;
37655;SDS011;23498;50.958;3.124;2023-07-13T11:31:52;4.47;;;1.52;;
37655;SDS011;23498;50.958;3.124;2023-07-13T11:34:24;4.43;;;1.67;;
37655;SDS011;23498;50.958;3.124;2023-07-13T11:36:51;3.97;;;1.63;;
37655;SDS011;23498;50.958;3.124;2023-07-13T11:39:23;3.80;;;1.33;;
37655;SDS011;23498;50.958;3.124;2023-07-13T11:41:59;4.63;;;1.63;;
37655;SDS011;23498;50.958;3.124;2023-07-13T11:44:29;5.30;;;1.73;;
37655;SDS011;23498;50.958;3.124;2023-07-13T11:46:56;3.05;;;1.40;;
37655;SDS011;23498;50.958;3.124;2023-07-13T11:49:25;6.60;;;1.60;;
37655;SDS011;23498;50.958;3.124;2023-07-13T11:51:52;2.13;;;1.13;;
37655;SDS011;23498;50.958;3.124;2023-07-13T11:56:51;2.60;;;1.17;;
37655;SDS011;23498;50.958;3.124;2023-07-13T11:59:17;3.70;;;1.45;;
37655;SDS011;23498;50.958;3.124;2023-07-13T12:01:50;4.10;;;1.60;;
37655;SDS011;23498;50.958;3.124;2023-07-13T12:04:22;2.72;;;1.20;;
37655;SDS011;23498;50.958;3.124;2023-07-13T12:09:15;3.88;;;1.33;;
37655;SDS011;23498;50.958;3.124;2023-07-13T12:11:41;4.13;;;1.58;;
37655;SDS011;23498;50.958;3.124;2023-07-13T12:14:15;3.90;;;1.25;;
37655;SDS011;23498;50.958;3.124;2023-07-13T12:16:41;4.40;;;1.35;;
37655;SDS011;23498;50.958;3.124;2023-07-13T12:19:15;4.10;;;1.42;;
37655;SDS011;23498;50.958;3.124;2023-07-13T12:21:42;3.40;;;1.10;;
37655;SDS011;23498;50.958;3.124;2023-07-13T12:24:19;4.13;;;1.20;;
37655;SDS011;23498;50.958;3.124;2023-07-13T12:26:50;3.10;;;1.10;;
37655;SDS011;23498;50.958;3.124;2023-07-13T12:29:17;4.10;;;1.20;;
37655;SDS011;23498;50.958;3.124;2023-07-13T12:31:44;2.53;;;1.17;;
37655;SDS011;23498;50.958;3.124;2023-07-13T12:34:15;2.97;;;1.42;;
37655;SDS011;23498;50.958;3.124;2023-07-13T12:37:00;4.13;;;0.90;;
37655;SDS011;23498;50.958;3.124;2023-07-13T12:39:34;4.00;;;1.30;;
37655;SDS011;23498;50.958;3.124;2023-07-13T12:45:03;2.55;;;1.00;;
37655;SDS011;23498;50.958;3.124;2023-07-13T12:47:29;3.05;;;1.10;;
37655;SDS011;23498;50.958;3.124;2023-07-13T12:49:59;3.10;;;1.30;;
37655;SDS011;23498;50.958;3.124;2023-07-13T12:52:33;3.07;;;1.00;;
37655;SDS011;23498;50.958;3.124;2023-07-13T12:55:07;4.13;;;1.27;;
37655;SDS011;23498;50.958;3.124;2023-07-13T12:57:49;5.28;;;1.20;;
37655;SDS011;23498;50.958;3.124;2023-07-13T13:00:37;4.03;;;1.17;;
37655;SDS011;23498;50.958;3.124;2023-07-13T13:05:48;2.67;;;1.00;;
37655;SDS011;23498;50.958;3.124;2023-07-13T13:08:14;3.03;;;1.02;;
37655;SDS011;23498;50.958;3.124;2023-07-13T13:10:40;2.50;;;1.02;;
37655;SDS011;23498;50.958;3.124;2023-07-13T13:13:06;3.30;;;1.27;;
37655;SDS011;23498;50.958;3.124;2023-07-13T13:15:33;4.50;;;1.10;;
37655;SDS011;23498;50.958;3.124;2023-07-13T13:18:01;3.40;;;1.00;;
37655;SDS011;23498;50.958;3.124;2023-07-13T13:20:27;2.80;;;1.27;;
37655;SDS011;23498;50.958;3.124;2023-07-13T13:22:53;4.78;;;1.40;;
37655;SDS011;23498;50.958;3.124;2023-07-13T13:25:20;2.70;;;1.17;;
37655;SDS011;23498;50.958;3.124;2023-07-13T13:27:47;3.40;;;1.13;;
37655;SDS011;23498;50.958;3.124;2023-07-13T13:30:15;3.22;;;1.02;;
37655;SDS011;23498;50.958;3.124;2023-07-13T13:32:42;3.70;;;1.27;;
37655;SDS011;23498;50.958;3.124;2023-07-13T13:35:15;2.72;;;1.10;;
37655;SDS011;23498;50.958;3.124;2023-07-13T13:37:42;3.70;;;1.17;;
37655;SDS011;23498;50.958;3.124;2023-07-13T13:40:21;3.80;;;1.33;;
37655;SDS011;23498;50.958;3.124;2023-07-13T13:42:48;1.75;;;0.80;;
37655;SDS011;23498;50.958;3.124;2023-07-13T13:45:14;2.72;;;1.05;;
37655;SDS011;23498;50.958;3.124;2023-07-13T13:47:43;2.78;;;1.15;;
37655;SDS011;23498;50.958;3.124;2023-07-13T13:50:16;2.20;;;0.85;;
37655;SDS011;23498;50.958;3.124;2023-07-13T13:52:42;3.25;;;1.23;;
37655;SDS011;23498;50.958;3.124;2023-07-13T13:55:16;3.97;;;1.10;;
37655;SDS011;23498;50.958;3.124;2023-07-13T13:57:43;3.90;;;1.05;;
37655;SDS011;23498;50.958;3.124;2023-07-13T14:00:10;2.65;;;1.23;;
37655;SDS011;23498;50.958;3.124;2023-07-13T14:02:39;2.97;;;0.85;;
37655;SDS011;23498;50.958;3.124;2023-07-13T14:05:06;3.95;;;1.20;;
37655;SDS011;23498;50.958;3.124;2023-07-13T14:07:32;2.33;;;0.90;;
37655;SDS011;23498;50.958;3.124;2023-07-13T14:09:58;5.93;;;1.35;;
37655;SDS011;23498;50.958;3.124;2023-07-13T14:12:26;3.20;;;1.10;;
37655;SDS011;23498;50.958;3.124;2023-07-13T14:14:53;2.60;;;1.08;;
37655;SDS011;23498;50.958;3.124;2023-07-13T14:17:23;2.78;;;1.20;;
37655;SDS011;23498;50.958;3.124;2023-07-13T14:19:50;2.55;;;0.90;;
37655;SDS011;23498;50.958;3.124;2023-07-13T14:22:21;5.93;;;1.10;;
37655;SDS011;23498;50.958;3.124;2023-07-13T14:24:47;2.92;;;1.20;;
37655;SDS011;23498;50.958;3.124;2023-07-13T14:27:14;3.42;;;0.70;;
37655;SDS011;23498;50.958;3.124;2023-07-13T14:29:40;4.30;;;1.23;;
37655;SDS011;23498;50.958;3.124;2023-07-13T14:32:15;2.03;;;0.90;;
37655;SDS011;23498;50.958;3.124;2023-07-13T14:34:41;4.00;;;0.95;;
37655;SDS011;23498;50.958;3.124;2023-07-13T14:37:14;3.90;;;1.00;;
37655;SDS011;23498;50.958;3.124;2023-07-13T14:39:42;2.80;;;1.10;;
37655;SDS011;23498;50.958;3.124;2023-07-13T14:42:08;3.30;;;1.27;;
37655;SDS011;23498;50.958;3.124;2023-07-13T14:44:35;6.03;;;1.33;;
37655;SDS011;23498;50.958;3.124;2023-07-13T14:47:02;3.28;;;1.17;;
37655;SDS011;23498;50.958;3.124;2023-07-13T14:49:30;4.32;;;1.17;;
37655;SDS011;23498;50.958;3.124;2023-07-13T14:51:57;2.70;;;0.90;;
37655;SDS011;23498;50.958;3.124;2023-07-13T14:54:24;3.30;;;1.13;;
37655;SDS011;23498;50.958;3.124;2023-07-13T14:56:50;3.55;;;1.10;;
37655;SDS011;23498;50.958;3.124;2023-07-13T14:59:16;6.47;;;1.50;;
37655;SDS011;23498;50.958;3.124;2023-07-13T15:01:45;5.13;;;1.23;;
37655;SDS011;23498;50.958;3.124;2023-07-13T15:04:11;4.50;;;1.33;;
37655;SDS011;23498;50.958;3.124;2023-07-13T15:06:57;4.07;;;1.38;;
37655;SDS011;23498;50.958;3.124;2023-07-13T15:09:24;4.07;;;1.20;;
37655;SDS011;23498;50.958;3.124;2023-07-13T15:11:51;3.25;;;1.20;;
37655;SDS011;23498;50.958;3.124;2023-07-13T15:14:17;2.72;;;1.30;;
37655;SDS011;23498;50.958;3.124;2023-07-13T15:16:43;3.65;;;1.27;;
37655;SDS011;23498;50.958;3.124;2023-07-13T15:19:10;1.90;;;0.93;;
37655;SDS011;23498;50.958;3.124;2023-07-13T15:21:36;4.20;;;1.20;;
37655;SDS011;23498;50.958;3.124;2023-07-13T15:24:02;6.40;;;1.73;;
37655;SDS011;23498;50.958;3.124;2023-07-13T15:26:28;2.80;;;1.00;;
37655;SDS011;23498;50.958;3.124;2023-07-13T15:28:55;4.22;;;1.13;;
37655;SDS011;23498;50.958;3.124;2023-07-13T15:31:22;2.65;;;1.40;;